createdAt,value
2019-03-18T00:01:48.285Z,2.00
2019-03-18T00:10:49.272Z,2.00
2019-03-18T00:13:35.776Z,1.90
2019-03-18T00:16:22.061Z,1.90
2019-03-18T00:21:34.870Z,1.90
2019-03-18T00:24:12.746Z,1.80
2019-03-18T00:26:53.980Z,1.80
2019-03-18T00:29:35.830Z,1.80
2019-03-18T00:32:05.275Z,1.80
2019-03-18T00:35:01.608Z,1.80
2019-03-18T00:37:32.298Z,1.80
2019-03-18T00:43:23.320Z,1.70
2019-03-18T00:48:59.950Z,1.70
2019-03-18T00:51:44.192Z,1.90
2019-03-18T00:57:57.860Z,1.70
2019-03-18T01:00:34.945Z,1.70
2019-03-18T01:03:26.155Z,1.70
2019-03-18T01:05:57.176Z,1.70
2019-03-18T01:08:47.791Z,1.70
2019-03-18T01:18:06.482Z,1.60
2019-03-18T01:30:26.146Z,1.60
2019-03-18T01:33:09.898Z,1.60
2019-03-18T01:39:44.773Z,1.60
2019-03-18T02:02:35.177Z,1.50
2019-03-18T02:05:29.447Z,1.50
2019-03-18T02:08:09.899Z,1.50
2019-03-18T02:21:16.432Z,1.50
2019-03-18T02:23:39.725Z,1.50
2019-03-18T02:29:40.281Z,1.40
2019-03-18T02:39:19.770Z,1.50
2019-03-18T02:42:16.707Z,1.70
2019-03-18T02:44:47.968Z,1.80
2019-03-18T02:47:53.481Z,1.80
2019-03-18T03:03:37.432Z,1.70
2019-03-18T03:06:41.785Z,1.70
2019-03-18T03:10:02.997Z,1.70
2019-03-18T03:50:38.483Z,1.60
2019-03-18T03:59:49.608Z,1.50
2019-03-18T04:02:51.078Z,1.70
2019-03-18T04:51:23.526Z,1.70
2019-03-18T05:25:31.494Z,1.60
2019-03-18T05:40:57.208Z,1.00
2019-03-18T05:43:51.146Z,1.00
2019-03-18T05:46:42.597Z,1.10
2019-03-18T06:02:06.998Z,1.00
2019-03-18T06:04:53.466Z,1.00
2019-03-18T06:07:21.594Z,1.00
2019-03-18T06:18:42.209Z,1.30
2019-03-18T06:21:30.080Z,1.40
2019-03-18T06:24:56.000Z,1.70
2019-03-18T06:28:05.779Z,1.90
2019-03-18T06:53:09.026Z,2.40
2019-03-18T06:55:37.232Z,2.40
2019-03-18T06:58:26.408Z,2.40
2019-03-18T07:00:54.487Z,2.60
2019-03-18T07:03:38.107Z,2.80
2019-03-18T07:06:15.775Z,3.00
2019-03-18T07:12:08.369Z,3.30
2019-03-18T07:14:36.974Z,3.50
2019-03-18T07:26:12.115Z,3.10
2019-03-18T07:31:56.038Z,3.20
2019-03-18T07:37:27.977Z,3.20
2019-03-18T07:43:37.131Z,3.40
2019-03-18T07:46:05.666Z,3.40
2019-03-18T07:55:30.561Z,3.90
2019-03-18T07:57:58.783Z,4.00
2019-03-18T08:00:27.982Z,3.90
2019-03-18T08:06:00.921Z,4.10
2019-03-18T08:08:32.207Z,4.10
2019-03-18T08:11:01.869Z,4.20
2019-03-18T08:14:09.546Z,4.40
2019-03-18T08:17:07.899Z,4.50
2019-03-18T08:26:21.905Z,4.70
2019-03-18T08:28:53.608Z,4.80
2019-03-18T08:31:21.989Z,5.00
2019-03-18T08:33:50.330Z,5.00
2019-03-18T08:36:24.598Z,5.10
2019-03-18T08:38:59.586Z,4.90
2019-03-18T08:41:30.720Z,4.80
2019-03-18T08:43:58.639Z,4.80
2019-03-18T08:46:26.756Z,4.90
2019-03-18T08:48:55.967Z,4.90
2019-03-18T08:51:24.554Z,4.90
2019-03-18T08:53:52.517Z,4.80
2019-03-18T08:56:23.564Z,4.90
2019-03-18T08:58:51.632Z,4.90
2019-03-18T09:01:19.947Z,5.00
2019-03-18T09:03:48.088Z,5.30
2019-03-18T09:06:17.709Z,5.30
2019-03-18T09:08:45.989Z,5.60
2019-03-18T09:11:19.872Z,5.90
2019-03-18T09:13:48.054Z,5.90
2019-03-18T09:16:16.481Z,5.90
2019-03-18T09:18:44.649Z,5.90
2019-03-18T09:21:12.734Z,6.10
2019-03-18T09:23:40.797Z,6.00
2019-03-18T09:26:10.354Z,6.10
2019-03-18T09:28:38.557Z,5.90
2019-03-18T09:31:07.080Z,5.60
2019-03-18T09:33:35.022Z,5.50
2019-03-18T09:36:06.160Z,5.60
2019-03-18T09:38:34.585Z,5.60
2019-03-18T09:41:36.945Z,5.60
2019-03-18T09:44:07.855Z,5.50
2019-03-18T09:46:36.580Z,5.70
2019-03-18T09:49:27.218Z,5.80
2019-03-18T09:51:55.906Z,5.90
2019-03-18T09:54:23.938Z,6.00
2019-03-18T09:57:04.773Z,6.20
2019-03-18T09:59:32.952Z,6.40
2019-03-18T10:02:01.246Z,6.40
2019-03-18T10:04:29.457Z,6.30
2019-03-18T10:06:57.899Z,6.40
2019-03-18T10:09:26.072Z,6.50
2019-03-18T10:12:03.334Z,6.80
2019-03-18T10:15:07.023Z,6.70
2019-03-18T10:17:35.295Z,6.70
2019-03-18T10:20:12.858Z,6.70
2019-03-18T10:22:41.707Z,6.80
2019-03-18T10:25:09.822Z,6.80
2019-03-18T10:27:40.950Z,6.60
2019-03-18T10:30:09.287Z,6.70
2019-03-18T10:32:40.206Z,6.90
2019-03-18T10:35:09.827Z,7.20
2019-03-18T10:37:38.808Z,7.50
2019-03-18T10:40:08.013Z,7.60
2019-03-18T10:42:36.152Z,7.90
2019-03-18T10:45:04.655Z,8.00
2019-03-18T10:47:32.936Z,7.90
2019-03-18T10:50:01.260Z,7.80
2019-03-18T10:52:30.625Z,8.00
2019-03-18T10:54:59.787Z,8.00
2019-03-18T10:57:28.275Z,7.60
2019-03-18T10:59:56.606Z,7.60
2019-03-18T11:02:24.982Z,7.30
2019-03-18T11:04:53.652Z,7.20
2019-03-18T11:07:22.544Z,7.10
2019-03-18T11:09:51.061Z,6.50
2019-03-18T11:12:18.958Z,6.20
2019-03-18T11:14:46.945Z,5.80
2019-03-18T11:17:14.939Z,5.30
2019-03-18T11:19:43.147Z,5.00
2019-03-18T11:22:12.087Z,4.90
2019-03-18T11:24:40.158Z,4.60
2019-03-18T11:27:08.211Z,4.50
2019-03-18T11:29:36.117Z,4.60
2019-03-18T11:32:04.185Z,4.80
2019-03-18T11:34:32.585Z,5.00
2019-03-18T11:37:00.497Z,5.10
2019-03-18T11:39:28.465Z,5.20
2019-03-18T11:41:56.700Z,5.10
2019-03-18T11:44:27.737Z,5.00
2019-03-18T11:46:59.049Z,5.10
2019-03-18T11:49:38.790Z,5.20
2019-03-18T11:51:56.934Z,5.30
2019-03-18T11:54:24.972Z,5.50
2019-03-18T11:56:53.025Z,5.50
2019-03-18T11:59:21.255Z,5.80
2019-03-18T12:01:51.928Z,6.20
2019-03-18T12:04:19.828Z,6.40
2019-03-18T12:06:48.988Z,6.50
2019-03-18T12:09:19.703Z,7.00
2019-03-18T12:11:47.977Z,7.50
2019-03-18T12:14:16.184Z,7.60
2019-03-18T12:16:44.154Z,7.30
2019-03-18T12:19:12.213Z,6.70
2019-03-18T12:21:40.236Z,6.30
2019-03-18T12:24:10.428Z,6.00
2019-03-18T12:26:38.337Z,5.90
2019-03-18T12:29:06.265Z,5.90
2019-03-18T12:31:34.226Z,5.90
2019-03-18T12:34:02.702Z,6.00
2019-03-18T12:36:30.580Z,6.10
2019-03-18T12:38:58.816Z,6.20
2019-03-18T12:41:26.695Z,6.30
2019-03-18T12:43:54.816Z,6.50
2019-03-18T12:46:25.630Z,6.90
2019-03-18T12:48:56.406Z,6.90
2019-03-18T12:51:24.582Z,7.20
2019-03-18T12:53:52.511Z,7.30
2019-03-18T12:56:20.498Z,7.40
2019-03-18T12:58:49.138Z,7.40
2019-03-18T13:01:17.101Z,8.70
2019-03-18T13:03:45.216Z,9.90
2019-03-18T13:06:13.574Z,11.30
2019-03-18T13:08:41.825Z,9.90
2019-03-18T13:11:15.868Z,8.80
2019-03-18T13:13:44.024Z,7.70
2019-03-18T13:16:12.063Z,6.90
2019-03-18T13:18:40.005Z,6.60
2019-03-18T13:21:08.482Z,6.30
2019-03-18T13:23:36.752Z,6.00
2019-03-18T13:26:04.779Z,5.90
2019-03-18T13:28:32.780Z,5.60
2019-03-18T13:31:01.037Z,5.30
2019-03-18T13:33:31.870Z,5.30
2019-03-18T13:35:59.794Z,5.40
2019-03-18T13:38:27.928Z,5.40
2019-03-18T13:40:58.735Z,5.40
2019-03-18T13:43:28.183Z,5.60
2019-03-18T13:45:59.097Z,5.80
2019-03-18T13:48:26.946Z,6.10
2019-03-18T13:50:55.574Z,7.60
2019-03-18T13:53:23.822Z,9.00
2019-03-18T13:55:52.156Z,10.50
2019-03-18T13:58:21.495Z,10.90
2019-03-18T14:00:50.762Z,11.40
2019-03-18T14:03:19.986Z,12.10
2019-03-18T14:05:49.191Z,13.00
2019-03-18T14:08:18.443Z,13.40
2019-03-18T14:10:47.913Z,14.80
2019-03-18T14:13:16.921Z,15.40
2019-03-18T14:15:45.893Z,15.10
2019-03-18T14:18:14.705Z,15.90
2019-03-18T14:20:44.102Z,15.60
2019-03-18T14:23:57.260Z,16.00
2019-03-18T14:26:29.854Z,16.40
2019-03-18T14:28:58.971Z,15.40
2019-03-18T14:31:28.622Z,15.30
2019-03-18T14:33:57.570Z,15.40
2019-03-18T14:36:26.465Z,14.70
2019-03-18T14:38:55.569Z,14.10
2019-03-18T14:41:24.458Z,14.10
2019-03-18T14:43:56.947Z,14.00
2019-03-18T14:46:26.374Z,13.60
2019-03-18T14:48:55.856Z,14.20
2019-03-18T14:51:24.895Z,13.80
2019-03-18T14:53:54.560Z,14.10
2019-03-18T14:56:23.545Z,12.70
2019-03-18T14:58:52.476Z,12.60
2019-03-18T15:01:22.770Z,12.50
2019-03-18T15:03:50.960Z,12.60
2019-03-18T15:06:19.053Z,11.00
2019-03-18T15:08:47.024Z,9.90
2019-03-18T15:11:15.418Z,8.80
2019-03-18T15:14:04.636Z,8.20
2019-03-18T15:16:32.560Z,7.70
2019-03-18T15:19:05.900Z,7.20
2019-03-18T15:21:37.224Z,7.10
2019-03-18T15:24:16.492Z,8.30
2019-03-18T15:26:38.233Z,9.60
2019-03-18T15:29:06.551Z,10.20
2019-03-18T15:31:36.108Z,10.10
2019-03-18T15:34:09.006Z,9.50
2019-03-18T15:36:55.404Z,8.70
2019-03-18T15:39:23.579Z,7.80
2019-03-18T15:41:54.565Z,7.30
2019-03-18T15:44:22.747Z,7.00
2019-03-18T15:46:59.222Z,6.80
2019-03-18T15:49:24.955Z,6.90
2019-03-18T15:52:13.723Z,7.00
2019-03-18T15:54:53.113Z,6.90
2019-03-18T15:57:29.232Z,7.00
2019-03-18T15:59:51.253Z,7.20
2019-03-18T16:02:22.193Z,8.30
2019-03-18T16:04:50.417Z,10.10
2019-03-18T16:07:22.418Z,12.10
2019-03-18T16:09:50.328Z,12.90
2019-03-18T16:12:24.227Z,12.60
2019-03-18T16:17:29.732Z,13.00
2019-03-18T16:20:29.069Z,13.50
2019-03-18T16:22:57.095Z,13.20
2019-03-18T16:25:25.642Z,13.90
2019-03-18T16:28:36.117Z,13.30
2019-03-18T16:34:07.480Z,14.30
2019-03-18T16:37:14.060Z,13.60
2019-03-18T16:39:41.726Z,12.70
2019-03-18T16:42:15.952Z,12.60
2019-03-18T16:44:51.735Z,12.50
2019-03-18T16:47:19.840Z,12.00
2019-03-18T16:49:47.956Z,12.40
2019-03-18T16:52:16.102Z,11.10
2019-03-18T16:54:44.530Z,9.90
2019-03-18T16:57:12.807Z,9.10
2019-03-18T16:59:41.237Z,8.70
2019-03-18T17:02:13.698Z,8.30
2019-03-18T17:08:53.161Z,7.80
2019-03-18T17:11:24.647Z,7.50
2019-03-18T17:13:59.116Z,7.30
2019-03-18T17:16:42.346Z,7.20
2019-03-18T17:19:10.637Z,7.00
2019-03-18T17:21:38.864Z,6.90
2019-03-18T17:24:13.031Z,6.70
2019-03-18T17:26:44.496Z,6.70
2019-03-18T17:29:21.885Z,6.60
2019-03-18T17:31:54.620Z,6.50
2019-03-18T17:34:25.655Z,6.40
2019-03-18T17:36:54.614Z,6.30
2019-03-18T17:39:34.913Z,6.30
2019-03-18T17:42:06.231Z,6.20
2019-03-18T17:44:36.306Z,6.10
2019-03-18T17:47:07.556Z,6.00
2019-03-18T17:49:37.931Z,6.00
2019-03-18T17:52:09.577Z,5.90
2019-03-18T17:54:51.349Z,5.90
2019-03-18T17:57:19.713Z,5.80
2019-03-18T17:59:49.366Z,5.70
2019-03-18T18:02:17.564Z,5.60
2019-03-18T18:04:46.185Z,5.60
2019-03-18T18:07:14.468Z,5.50
2019-03-18T18:09:42.421Z,5.30
2019-03-18T18:12:10.574Z,5.30
2019-03-18T18:14:38.507Z,5.20
2019-03-18T18:17:13.978Z,5.20
2019-03-18T18:19:45.171Z,5.10
2019-03-18T18:22:16.321Z,5.10
2019-03-18T18:24:44.873Z,5.10
2019-03-18T18:27:13.027Z,5.00
2019-03-18T18:29:47.418Z,4.80
2019-03-18T18:32:20.030Z,4.70
2019-03-18T18:34:48.465Z,4.70
2019-03-18T18:37:16.856Z,4.60
2019-03-18T18:39:50.741Z,4.60
2019-03-18T18:42:19.094Z,4.50
2019-03-18T18:44:51.564Z,4.40
2019-03-18T18:47:19.525Z,4.30
2019-03-18T18:49:47.573Z,4.30
2019-03-18T18:52:20.193Z,4.20
2019-03-18T18:54:54.177Z,3.50
2019-03-18T18:57:25.149Z,3.30
2019-03-18T18:59:53.047Z,3.40
2019-03-18T19:02:23.994Z,3.60
2019-03-18T19:04:51.890Z,3.70
2019-03-18T19:07:22.903Z,3.50
2019-03-18T19:09:54.024Z,3.40
2019-03-18T19:12:22.494Z,3.30
2019-03-18T19:14:52.794Z,3.20
2019-03-18T19:17:21.455Z,3.30
2019-03-18T19:19:50.940Z,3.30
2019-03-18T19:22:19.935Z,3.40
2019-03-18T19:24:48.262Z,3.40
2019-03-18T19:27:17.909Z,3.50
2019-03-18T19:29:47.295Z,3.50
2019-03-18T19:32:16.411Z,3.50
2019-03-18T19:34:45.032Z,3.70
2019-03-18T19:37:15.229Z,3.90
2019-03-18T19:39:46.313Z,3.90
2019-03-18T19:42:14.663Z,3.90
2019-03-18T19:44:43.128Z,3.80
2019-03-18T19:47:11.694Z,3.80
2019-03-18T19:49:41.165Z,3.70
2019-03-18T19:52:10.185Z,3.60
2019-03-18T19:54:38.624Z,3.50
2019-03-18T19:57:07.953Z,3.50
2019-03-18T19:59:37.184Z,3.40
2019-03-18T20:02:07.502Z,3.40
2019-03-18T20:04:39.439Z,3.30
2019-03-18T20:07:08.269Z,3.20
2019-03-18T20:09:36.579Z,3.20
2019-03-18T20:12:05.026Z,3.20
2019-03-18T20:14:33.748Z,3.10
2019-03-18T20:17:06.409Z,3.10
2019-03-18T20:19:34.755Z,3.10
2019-03-18T20:22:03.739Z,3.20
2019-03-18T20:24:54.441Z,3.00
2019-03-18T20:27:22.822Z,3.00
2019-03-18T20:30:28.948Z,2.90
2019-03-18T20:33:00.702Z,2.80
2019-03-18T20:35:32.299Z,2.80
2019-03-18T20:38:05.835Z,2.80
2019-03-18T20:40:37.865Z,2.70
2019-03-18T20:43:06.032Z,2.70
2019-03-18T20:45:40.474Z,2.60
2019-03-18T20:48:08.521Z,2.50
2019-03-18T20:50:36.447Z,2.50
2019-03-18T20:53:04.448Z,2.40
2019-03-18T20:55:32.364Z,2.40
2019-03-18T20:58:00.696Z,2.40
2019-03-18T21:00:28.669Z,2.30
2019-03-18T21:02:58.462Z,2.30
2019-03-18T21:05:26.532Z,2.20
2019-03-18T21:07:54.609Z,2.10
2019-03-18T21:10:22.756Z,2.00
2019-03-18T21:12:53.582Z,1.90
2019-03-18T21:15:24.374Z,1.90
2019-03-18T21:17:53.408Z,2.00
2019-03-18T21:20:21.437Z,1.90
2019-03-18T21:22:49.637Z,1.90
2019-03-18T21:25:20.617Z,1.90
2019-03-18T21:27:48.638Z,1.90
2019-03-18T21:30:16.711Z,1.80
2019-03-18T21:32:45.067Z,1.80
2019-03-18T21:35:13.440Z,1.70
2019-03-18T21:37:41.473Z,1.70
2019-03-18T21:40:10.158Z,1.60
2019-03-18T21:42:41.214Z,1.50
2019-03-18T21:45:13.758Z,1.60
2019-03-18T21:47:41.781Z,1.50
2019-03-18T21:50:10.341Z,1.40
2019-03-18T21:52:38.361Z,1.40
2019-03-18T21:55:09.473Z,1.40
2019-03-18T21:57:37.467Z,1.40
2019-03-18T22:00:08.432Z,1.50
2019-03-18T22:02:39.213Z,1.50
2019-03-18T22:05:10.417Z,1.50
2019-03-18T22:07:41.567Z,1.40
2019-03-18T22:10:10.372Z,1.40
2019-03-18T22:12:38.482Z,1.30
2019-03-18T22:15:07.868Z,1.10
2019-03-18T22:17:36.032Z,0.90
2019-03-18T22:20:07.910Z,0.90
2019-03-18T22:22:36.255Z,0.80
2019-03-18T22:25:04.777Z,0.60
2019-03-18T22:27:32.913Z,0.50
2019-03-18T22:30:01.160Z,0.50
2019-03-18T22:32:29.095Z,0.50
2019-03-18T22:35:00.336Z,0.50
2019-03-18T22:37:31.473Z,0.40
2019-03-18T22:40:02.792Z,0.40
2019-03-18T22:42:30.791Z,0.40
2019-03-18T22:45:00.374Z,0.30
2019-03-18T22:47:28.393Z,0.20
2019-03-18T22:49:59.060Z,0.40
2019-03-18T22:52:27.185Z,0.40
2019-03-18T22:54:56.137Z,0.40
2019-03-18T22:57:24.387Z,0.30
2019-03-18T22:59:52.399Z,0.10
2019-03-18T23:02:20.624Z,0.00
2019-03-18T23:04:48.666Z,0.00
2019-03-18T23:07:16.665Z,0.20
2019-03-18T23:09:44.683Z,0.20
2019-03-18T23:12:12.674Z,0.20
2019-03-18T23:14:41.188Z,0.20
2019-03-18T23:17:09.182Z,0.10
2019-03-18T23:19:37.116Z,0.10
2019-03-18T23:22:05.342Z,-0.10
2019-03-18T23:24:33.402Z,-0.20
2019-03-18T23:27:01.390Z,-0.20
2019-03-18T23:29:29.420Z,-0.30
2019-03-18T23:32:00.550Z,-0.20
2019-03-18T23:34:28.856Z,-0.20
2019-03-18T23:36:59.684Z,-0.20
2019-03-18T23:39:37.129Z,-0.10
2019-03-18T23:42:05.633Z,0.00
2019-03-18T23:44:39.630Z,0.00
2019-03-18T23:47:11.654Z,-0.10
2019-03-18T23:49:40.143Z,-0.10
2019-03-18T23:52:08.063Z,-0.10
2019-03-18T23:54:36.089Z,0.00
2019-03-18T23:57:04.342Z,0.00
2019-03-18T23:59:32.332Z,0.00
